• Join FlightAware (Why Join?)
  • Login
  • US Flag 
Rudolph Flight #1: Arrived! 
05:57PM EST


 

Airport Tracker/Info


-or-


 

Live Flight TrackerFlight Track Log ✈ N5089N ✈ 29-Aug-2014 ✈ KIJD - KPVC

Flight Track Log - Related Links

Times and Time Zones

All times are in EDT time to prevent confusion due to time zone crossing. See the N5089N flight status page for this flight to view local times or setup timezone preferences in your user account.

Time Position Orientation Groundspeed Altitude Reporting Facility
EDT Latitude Longitude Course Direction KTS MPH feet Rate Location/Type
06:34PM 41.7486 -72.1942 251° West 81 93 2,100  Level Boston Center
06:35PM 41.7486 -72.2211 270° West 101 116 2,800 660 Climbing Boston Center
06:36PM 41.7567 -72.2208 North 106 122 2,900 600 Climbing Boston Center
06:37PM 41.7683 -72.1997 53° Northeast 83 96 3,500 660 Climbing Boston Center
06:37PM 41.7717 -72.1956 43° Northeast 90 104 3,600 600 Climbing Boston Center
06:38PM 41.7875 -72.1694 51° Northeast 91 105 4,200 600 Climbing Boston Center
06:38PM 41.7986 -72.1475 56° Northeast 96 110 4,700 600 Climbing Boston Center
06:39PM 41.8033 -72.1378 57° Northeast 92 106 4,900 540 Climbing Boston Center
06:39PM 41.8136 -72.1183 55° Northeast 94 108 5,300 660 Climbing Boston Center
06:40PM 41.8194 -72.1072 55° Northeast 94 108 5,600 600 Climbing Boston Center
06:40PM 41.8278 -72.0919 54° Northeast 91 105 5,900 480 Climbing Boston Center
06:41PM 41.8344 -72.0797 54° Northeast 94 108 6,100 480 Climbing Boston Center
06:41PM 41.8425 -72.0628 57° Northeast 95 109 6,400 540 Climbing Boston Center
06:42PM 41.8506 -72.0469 56° Northeast 98 113 6,700 600 Climbing Boston Center
06:43PM 41.8606 -72.0289 53° Northeast 97 112 7,100 360 Climbing Boston Center
06:43PM 41.8669 -72.0175 53° Northeast 98 113 7,100 60 Level Boston Center
06:44PM 41.8783 -71.9950 56° Northeast 119 137 7,200  Climbing Boston Center
06:44PM 41.8853 -71.9800 58° Northeast 120 138 7,100 -120 Descending Boston Center
06:45PM 41.9000 -71.9539 53° Northeast 137 158 7,100 60 Level Boston Center
06:45PM 41.9092 -71.9356 56° Northeast 135 155 7,200 60 Climbing Boston Center
06:46PM 41.9222 -71.9100 56° Northeast 135 155 7,200  Level Boston Center
06:46PM 41.9311 -71.8942 53° Northeast 136 157 7,200  Level Boston Center
06:47PM 41.9439 -71.8689 56° Northeast 135 155 7,200  Level Boston Center
06:47PM 41.9528 -71.8525 54° Northeast 136 157 7,200  Level Boston Center
06:48PM 41.9664 -71.8222 59° Northeast 136 157 7,200  Level Boston Center
06:48PM 41.9717 -71.8050 68° East 136 157 7,200  Level Boston Center
06:49PM 41.9711 -71.7689 91° East 129 148 7,200  Level Boston Center
06:49PM 41.9694 -71.7567 100° East 132 152 7,200 -120 Level Boston Center
06:50PM 41.9683 -71.7186 92° East 133 153 7,100  Descending Boston Center
06:50PM 41.9694 -71.7047 84° East 132 152 7,200 60 Climbing Boston Center
06:51PM 41.9714 -71.6733 85° East 133 153 7,200  Level Boston Center
06:51PM 41.9728 -71.6553 84° East 132 152 7,200  Level Boston Center
06:52PM 41.9739 -71.6192 88° East 131 151 7,200  Level Boston Center
06:52PM 41.9767 -71.6028 77° East 132 152 7,200  Level Boston Center
06:53PM 41.9789 -71.5633 86° East 134 154 7,200  Level Boston Center
06:53PM 41.9808 -71.5536 75° East 132 152 7,200  Level Boston Center
06:54PM 41.9847 -71.5133 83° East 136 157 7,200  Level Boston Center
06:54PM 41.9853 -71.5033 86° East 132 152 7,200  Level Boston Center
06:55PM 41.9881 -71.4653 84° East 131 151 7,200  Level Boston Center
06:55PM 41.9894 -71.4508 83° East 133 153 7,200 -180 Level Boston Center
06:56PM 41.9903 -71.4225 88° East 135 155 7,100 -120 Descending Boston Center
06:56PM 41.9925 -71.4011 82° East 133 153 7,100  Level Boston Center
06:57PM 41.9936 -71.3744 87° East 134 154 7,100  Level Boston Center
06:57PM 41.9967 -71.3483 81° East 133 153 7,100  Level Boston Center
06:58PM 41.9969 -71.3267 89° East 130 150 7,100  Level Boston Center
06:58PM 42.0008 -71.2989 79° East 133 153 7,100 -300 Level Boston Center
06:59PM 42.0006 -71.2758 91° East 132 152 6,800 -720 Descending Boston Center
06:59PM 42.0031 -71.2461 84° East 141 162 6,400 -900 Descending Boston Center
07:00PM 42.0036 -71.2189 88° East 156 180 5,900 -1,020 Descending Boston Center
07:00PM 42.0086 -71.1833 79° East 153 176 5,400 -780 Descending Boston Center
07:01PM 42.0078 -71.1656 94° East 154 177 5,200 -900 Descending Boston Center
07:01PM 42.0133 -71.1264 79° East 153 176 4,500 -780 Descending Boston Center
07:02PM 42.0164 -71.0633 86° East 157 181 3,900 -720 Descending Boston Center
07:04PM 42.0197 -71.0058 86° East 156 180 3,100 -480 Descending Boston Center
07:05PM 42.0239 -70.9539 84° East 142 163 3,000 -60 Descending Boston Center
07:06PM 42.0292 -70.9022 82° East 133 153 3,000  Level Boston Center
07:07PM 42.0311 -70.8550 87° East 129 148 3,100  Climbing Boston Center
07:08PM 42.0333 -70.8108 86° East 129 148 3,000  Descending Boston Center
07:09PM 42.0372 -70.7633 84° East 129 148 3,100  Climbing Boston Center
07:10PM 42.0403 -70.7156 85° East 129 148 3,100  Level Boston Center
07:11PM 42.0444 -70.6572 84° East 129 148 3,100 -60 Level Boston Center
07:12PM 42.0472 -70.6086 86° East 130 150 3,000  Descending Boston Center
07:13PM 42.0511 -70.5611 84° East 130 150 3,100 60 Climbing Boston Center
07:14PM 42.0503 -70.5142 91° East 128 147 3,200  Climbing Boston Center
07:15PM 42.0506 -70.4694 90° East 123 142 3,200 -360 Level Boston Center
07:16PM 42.0450 -70.4158 98° East 131 151 2,500 -540 Descending Boston Center
07:17PM 42.0381 -70.3675 101° East 135 155 2,200 -360 Descending Boston Center
07:18PM 42.0272 -70.3150 106° East 129 148 1,800 -300 Descending Boston Center
07:19PM 42.0186 -70.2703 105° East 126 145 1,600 -240 Descending Boston Center
07:20PM 42.0133 -70.2267 99° East 124 143 1,400 -240 Descending Boston Center
07:21PM 42.0142 -70.1814 89° East 124 143 1,200 -120 Descending Boston Center
07:22PM 42.0331 -70.1456 55° Northeast 122 140 1,200 300 Level Boston Center
07:23PM 42.0508 -70.1178 49° Northeast 110 127 1,900 480 Climbing Boston Center
07:24PM 42.0744 -70.1072 18° North 96 110 2,200 -60 Climbing Boston Center
07:25PM 42.0964 -70.1472 306° West 110 127 1,800 -480 Descending Boston Center
07:26PM 42.0919 -70.1975 263° West 129 148 1,300 -300 Descending Boston Center
07:27PM 42.0789 -70.2381 247° West 128 147 1,200 -480 Descending Boston Center
07:28PM 42.0644 -70.2447 199° South 118 136 400 -540 Descending Boston Center
07:29PM 42.0728 -70.2175 68° East 90 104 100 -300 Descending Boston Center